sensor_id;sensor_type;location;lat;lon;timestamp;P1;durP1;ratioP1;P2;durP2;ratioP2
73816;SDS011;62146;53.232;-1.304;2022-09-09T00:07:01;7.65;;;4.70;;
73816;SDS011;62146;53.232;-1.304;2022-09-09T00:09:44;10.57;;;5.15;;
73816;SDS011;62146;53.232;-1.304;2022-09-09T00:12:14;9.23;;;4.90;;
73816;SDS011;62146;53.232;-1.304;2022-09-09T00:14:55;10.07;;;5.18;;
73816;SDS011;62146;53.232;-1.304;2022-09-09T00:20:31;8.95;;;5.10;;
73816;SDS011;62146;53.232;-1.304;2022-09-09T00:23:11;12.38;;;5.60;;
73816;SDS011;62146;53.232;-1.304;2022-09-09T00:25:54;11.23;;;5.30;;
73816;SDS011;62146;53.232;-1.304;2022-09-09T00:28:23;8.70;;;5.25;;
73816;SDS011;62146;53.232;-1.304;2022-09-09T00:30:53;10.98;;;5.60;;
73816;SDS011;62146;53.232;-1.304;2022-09-09T00:33:22;9.32;;;5.57;;
73816;SDS011;62146;53.232;-1.304;2022-09-09T00:35:51;10.93;;;5.65;;
73816;SDS011;62146;53.232;-1.304;2022-09-09T00:38:28;9.87;;;5.47;;
73816;SDS011;62146;53.232;-1.304;2022-09-09T00:43:41;9.25;;;5.40;;
73816;SDS011;62146;53.232;-1.304;2022-09-09T00:54:12;11.13;;;6.50;;
73816;SDS011;62146;53.232;-1.304;2022-09-09T00:56:46;11.85;;;5.93;;
73816;SDS011;62146;53.232;-1.304;2022-09-09T01:00:16;11.60;;;6.43;;
73816;SDS011;62146;53.232;-1.304;2022-09-09T01:02:18;10.52;;;6.63;;
73816;SDS011;62146;53.232;-1.304;2022-09-09T01:04:54;10.05;;;6.07;;
73816;SDS011;62146;53.232;-1.304;2022-09-09T01:07:24;10.63;;;5.90;;
73816;SDS011;62146;53.232;-1.304;2022-09-09T01:10:03;14.15;;;6.57;;
73816;SDS011;62146;53.232;-1.304;2022-09-09T01:12:52;9.65;;;5.85;;
73816;SDS011;62146;53.232;-1.304;2022-09-09T01:15:24;10.07;;;5.70;;
73816;SDS011;62146;53.232;-1.304;2022-09-09T01:23:22;9.57;;;5.43;;
73816;SDS011;62146;53.232;-1.304;2022-09-09T01:26:04;11.05;;;5.40;;
73816;SDS011;62146;53.232;-1.304;2022-09-09T01:28:38;11.48;;;5.50;;
73816;SDS011;62146;53.232;-1.304;2022-09-09T01:31:06;9.02;;;5.10;;
73816;SDS011;62146;53.232;-1.304;2022-09-09T01:33:35;12.30;;;4.97;;
73816;SDS011;62146;53.232;-1.304;2022-09-09T01:36:04;9.60;;;5.47;;
73816;SDS011;62146;53.232;-1.304;2022-09-09T01:38:35;10.02;;;5.10;;
73816;SDS011;62146;53.232;-1.304;2022-09-09T01:41:02;12.13;;;6.15;;
73816;SDS011;62146;53.232;-1.304;2022-09-09T01:43:29;9.50;;;5.45;;
73816;SDS011;62146;53.232;-1.304;2022-09-09T01:45:58;13.33;;;6.93;;
73816;SDS011;62146;53.232;-1.304;2022-09-09T01:48:27;10.15;;;6.18;;
73816;SDS011;62146;53.232;-1.304;2022-09-09T01:50:54;11.55;;;6.22;;
73816;SDS011;62146;53.232;-1.304;2022-09-09T01:53:21;9.75;;;5.38;;
73816;SDS011;62146;53.232;-1.304;2022-09-09T01:55:55;11.63;;;6.55;;
73816;SDS011;62146;53.232;-1.304;2022-09-09T02:03:32;11.27;;;5.90;;
73816;SDS011;62146;53.232;-1.304;2022-09-09T02:06:11;12.05;;;5.85;;
73816;SDS011;62146;53.232;-1.304;2022-09-09T02:08:50;11.20;;;5.38;;
73816;SDS011;62146;53.232;-1.304;2022-09-09T02:11:22;10.53;;;5.73;;
73816;SDS011;62146;53.232;-1.304;2022-09-09T02:13:54;11.55;;;5.88;;
73816;SDS011;62146;53.232;-1.304;2022-09-09T02:19:27;10.55;;;6.55;;
73816;SDS011;62146;53.232;-1.304;2022-09-09T02:22:05;13.70;;;6.88;;
73816;SDS011;62146;53.232;-1.304;2022-09-09T02:24:33;14.23;;;7.73;;
73816;SDS011;62146;53.232;-1.304;2022-09-09T02:27:03;12.63;;;6.75;;
73816;SDS011;62146;53.232;-1.304;2022-09-09T02:29:34;15.02;;;8.30;;
73816;SDS011;62146;53.232;-1.304;2022-09-09T02:32:04;13.98;;;8.63;;
73816;SDS011;62146;53.232;-1.304;2022-09-09T02:34:35;15.80;;;9.02;;
73816;SDS011;62146;53.232;-1.304;2022-09-09T02:37:06;15.93;;;9.57;;
73816;SDS011;62146;53.232;-1.304;2022-09-09T02:39:35;17.10;;;9.65;;
73816;SDS011;62146;53.232;-1.304;2022-09-09T02:42:03;15.23;;;9.55;;
73816;SDS011;62146;53.232;-1.304;2022-09-09T02:44:31;16.40;;;9.95;;
73816;SDS011;62146;53.232;-1.304;2022-09-09T02:55:38;16.33;;;10.23;;
73816;SDS011;62146;53.232;-1.304;2022-09-09T02:58:12;18.40;;;10.50;;
73816;SDS011;62146;53.232;-1.304;2022-09-09T03:00:43;15.27;;;9.40;;
73816;SDS011;62146;53.232;-1.304;2022-09-09T03:03:13;17.00;;;10.07;;
73816;SDS011;62146;53.232;-1.304;2022-09-09T03:05:40;18.73;;;10.40;;
73816;SDS011;62146;53.232;-1.304;2022-09-09T03:08:09;16.95;;;9.80;;
73816;SDS011;62146;53.232;-1.304;2022-09-09T03:10:35;18.27;;;10.90;;
73816;SDS011;62146;53.232;-1.304;2022-09-09T03:13:03;17.77;;;10.55;;
73816;SDS011;62146;53.232;-1.304;2022-09-09T03:15:32;16.47;;;9.33;;
73816;SDS011;62146;53.232;-1.304;2022-09-09T03:17:59;16.75;;;10.30;;
73816;SDS011;62146;53.232;-1.304;2022-09-09T03:20:27;17.23;;;9.77;;
73816;SDS011;62146;53.232;-1.304;2022-09-09T03:22:55;18.85;;;10.88;;
73816;SDS011;62146;53.232;-1.304;2022-09-09T03:25:22;17.38;;;10.75;;
73816;SDS011;62146;53.232;-1.304;2022-09-09T03:27:53;19.93;;;10.00;;
73816;SDS011;62146;53.232;-1.304;2022-09-09T03:30:21;18.40;;;10.85;;
73816;SDS011;62146;53.232;-1.304;2022-09-09T03:32:49;18.92;;;10.77;;
73816;SDS011;62146;53.232;-1.304;2022-09-09T03:35:15;16.25;;;10.77;;
73816;SDS011;62146;53.232;-1.304;2022-09-09T03:37:42;17.90;;;10.70;;
73816;SDS011;62146;53.232;-1.304;2022-09-09T03:40:09;18.03;;;10.50;;
73816;SDS011;62146;53.232;-1.304;2022-09-09T03:42:37;18.88;;;11.00;;
73816;SDS011;62146;53.232;-1.304;2022-09-09T03:45:04;20.52;;;10.77;;
73816;SDS011;62146;53.232;-1.304;2022-09-09T03:47:32;17.17;;;10.50;;
73816;SDS011;62146;53.232;-1.304;2022-09-09T03:49:59;20.38;;;10.80;;
73816;SDS011;62146;53.232;-1.304;2022-09-09T03:52:25;18.17;;;11.27;;
73816;SDS011;62146;53.232;-1.304;2022-09-09T03:54:53;19.70;;;11.55;;
73816;SDS011;62146;53.232;-1.304;2022-09-09T03:57:20;17.95;;;11.35;;
73816;SDS011;62146;53.232;-1.304;2022-09-09T03:59:47;19.15;;;11.57;;
73816;SDS011;62146;53.232;-1.304;2022-09-09T04:02:14;20.67;;;12.55;;
73816;SDS011;62146;53.232;-1.304;2022-09-09T04:04:41;20.47;;;12.27;;
73816;SDS011;62146;53.232;-1.304;2022-09-09T04:07:08;23.33;;;13.18;;
73816;SDS011;62146;53.232;-1.304;2022-09-09T04:09:34;21.80;;;13.07;;
73816;SDS011;62146;53.232;-1.304;2022-09-09T04:12:01;23.35;;;12.75;;
73816;SDS011;62146;53.232;-1.304;2022-09-09T04:14:28;21.90;;;13.55;;
73816;SDS011;62146;53.232;-1.304;2022-09-09T04:16:55;22.43;;;13.30;;
73816;SDS011;62146;53.232;-1.304;2022-09-09T04:19:23;22.77;;;13.55;;
73816;SDS011;62146;53.232;-1.304;2022-09-09T04:21:50;25.05;;;13.25;;
73816;SDS011;62146;53.232;-1.304;2022-09-09T04:24:17;26.00;;;13.57;;
73816;SDS011;62146;53.232;-1.304;2022-09-09T04:26:45;24.58;;;13.75;;
73816;SDS011;62146;53.232;-1.304;2022-09-09T04:29:11;24.20;;;13.93;;
73816;SDS011;62146;53.232;-1.304;2022-09-09T04:31:38;24.40;;;13.27;;
73816;SDS011;62146;53.232;-1.304;2022-09-09T04:34:11;27.58;;;14.77;;
73816;SDS011;62146;53.232;-1.304;2022-09-09T04:36:37;27.67;;;15.05;;
73816;SDS011;62146;53.232;-1.304;2022-09-09T04:39:06;26.73;;;14.13;;
73816;SDS011;62146;53.232;-1.304;2022-09-09T04:41:33;24.93;;;14.37;;
73816;SDS011;62146;53.232;-1.304;2022-09-09T04:44:03;22.73;;;14.23;;
73816;SDS011;62146;53.232;-1.304;2022-09-09T04:46:30;25.83;;;14.52;;
73816;SDS011;62146;53.232;-1.304;2022-09-09T04:48:56;23.42;;;14.55;;
73816;SDS011;62146;53.232;-1.304;2022-09-09T04:51:23;27.92;;;15.73;;
73816;SDS011;62146;53.232;-1.304;2022-09-09T04:53:50;26.30;;;15.00;;
73816;SDS011;62146;53.232;-1.304;2022-09-09T04:56:17;23.77;;;14.57;;
73816;SDS011;62146;53.232;-1.304;2022-09-09T04:58:44;24.35;;;14.50;;
73816;SDS011;62146;53.232;-1.304;2022-09-09T05:03:46;23.48;;;14.48;;
73816;SDS011;62146;53.232;-1.304;2022-09-09T05:06:14;24.37;;;14.50;;
73816;SDS011;62146;53.232;-1.304;2022-09-09T05:08:43;23.23;;;14.00;;
73816;SDS011;62146;53.232;-1.304;2022-09-09T05:11:21;23.35;;;14.25;;
73816;SDS011;62146;53.232;-1.304;2022-09-09T05:13:52;23.17;;;14.30;;
73816;SDS011;62146;53.232;-1.304;2022-09-09T05:16:20;23.13;;;14.45;;
73816;SDS011;62146;53.232;-1.304;2022-09-09T05:18:47;23.27;;;14.00;;
73816;SDS011;62146;53.232;-1.304;2022-09-09T05:21:15;25.15;;;13.25;;
73816;SDS011;62146;53.232;-1.304;2022-09-09T05:23:42;21.35;;;13.48;;
73816;SDS011;62146;53.232;-1.304;2022-09-09T05:26:14;22.50;;;13.02;;
73816;SDS011;62146;53.232;-1.304;2022-09-09T05:28:43;20.05;;;12.88;;
73816;SDS011;62146;53.232;-1.304;2022-09-09T05:31:10;21.73;;;13.00;;
73816;SDS011;62146;53.232;-1.304;2022-09-09T05:33:39;21.33;;;12.50;;
73816;SDS011;62146;53.232;-1.304;2022-09-09T05:36:12;20.83;;;13.02;;
73816;SDS011;62146;53.232;-1.304;2022-09-09T05:38:40;21.65;;;13.20;;
73816;SDS011;62146;53.232;-1.304;2022-09-09T05:41:07;23.13;;;13.00;;
73816;SDS011;62146;53.232;-1.304;2022-09-09T05:43:36;22.70;;;13.40;;
73816;SDS011;62146;53.232;-1.304;2022-09-09T05:46:05;20.60;;;13.38;;
73816;SDS011;62146;53.232;-1.304;2022-09-09T05:48:37;23.35;;;14.38;;
73816;SDS011;62146;53.232;-1.304;2022-09-09T05:51:05;22.20;;;12.88;;
73816;SDS011;62146;53.232;-1.304;2022-09-09T05:53:33;23.17;;;13.35;;
73816;SDS011;62146;53.232;-1.304;2022-09-09T05:56:07;20.70;;;13.03;;
73816;SDS011;62146;53.232;-1.304;2022-09-09T05:58:40;21.88;;;13.07;;
73816;SDS011;62146;53.232;-1.304;2022-09-09T06:01:10;21.83;;;12.75;;
73816;SDS011;62146;53.232;-1.304;2022-09-09T06:03:42;22.17;;;12.98;;
73816;SDS011;62146;53.232;-1.304;2022-09-09T06:06:14;22.42;;;12.98;;
73816;SDS011;62146;53.232;-1.304;2022-09-09T06:08:43;22.27;;;13.13;;
73816;SDS011;62146;53.232;-1.304;2022-09-09T06:11:13;22.70;;;12.87;;
73816;SDS011;62146;53.232;-1.304;2022-09-09T06:13:41;22.52;;;13.50;;
73816;SDS011;62146;53.232;-1.304;2022-09-09T06:16:08;23.15;;;13.45;;
73816;SDS011;62146;53.232;-1.304;2022-09-09T06:18:38;21.35;;;13.18;;
73816;SDS011;62146;53.232;-1.304;2022-09-09T06:21:06;21.98;;;12.32;;
73816;SDS011;62146;53.232;-1.304;2022-09-09T06:23:35;22.73;;;13.03;;
73816;SDS011;62146;53.232;-1.304;2022-09-09T06:26:05;22.23;;;12.93;;
73816;SDS011;62146;53.232;-1.304;2022-09-09T06:28:34;20.33;;;12.65;;
73816;SDS011;62146;53.232;-1.304;2022-09-09T06:31:02;20.45;;;12.63;;
73816;SDS011;62146;53.232;-1.304;2022-09-09T06:33:32;22.90;;;12.95;;
73816;SDS011;62146;53.232;-1.304;2022-09-09T06:36:07;20.47;;;12.30;;
73816;SDS011;62146;53.232;-1.304;2022-09-09T06:38:38;20.92;;;12.27;;
73816;SDS011;62146;53.232;-1.304;2022-09-09T06:41:04;23.65;;;14.00;;
73816;SDS011;62146;53.232;-1.304;2022-09-09T06:43:31;24.30;;;13.70;;
73816;SDS011;62146;53.232;-1.304;2022-09-09T06:45:59;22.70;;;12.55;;
73816;SDS011;62146;53.232;-1.304;2022-09-09T06:48:30;19.03;;;11.97;;
73816;SDS011;62146;53.232;-1.304;2022-09-09T06:51:03;23.92;;;13.05;;
73816;SDS011;62146;53.232;-1.304;2022-09-09T06:53:33;24.90;;;13.00;;
73816;SDS011;62146;53.232;-1.304;2022-09-09T06:56:01;22.88;;;13.15;;
73816;SDS011;62146;53.232;-1.304;2022-09-09T06:58:28;20.58;;;12.45;;
73816;SDS011;62146;53.232;-1.304;2022-09-09T07:01:04;21.33;;;12.93;;
73816;SDS011;62146;53.232;-1.304;2022-09-09T07:03:32;21.42;;;12.98;;
73816;SDS011;62146;53.232;-1.304;2022-09-09T07:06:00;22.48;;;13.60;;
73816;SDS011;62146;53.232;-1.304;2022-09-09T07:08:27;22.05;;;13.50;;
73816;SDS011;62146;53.232;-1.304;2022-09-09T07:10:54;21.73;;;13.30;;
73816;SDS011;62146;53.232;-1.304;2022-09-09T07:13:27;25.30;;;14.07;;
73816;SDS011;62146;53.232;-1.304;2022-09-09T07:15:54;27.23;;;14.65;;
73816;SDS011;62146;53.232;-1.304;2022-09-09T07:18:20;26.95;;;14.25;;
73816;SDS011;62146;53.232;-1.304;2022-09-09T07:20:53;22.48;;;13.70;;
73816;SDS011;62146;53.232;-1.304;2022-09-09T07:23:23;23.23;;;13.80;;
73816;SDS011;62146;53.232;-1.304;2022-09-09T07:25:50;24.70;;;14.30;;
73816;SDS011;62146;53.232;-1.304;2022-09-09T07:28:19;23.20;;;13.60;;
73816;SDS011;62146;53.232;-1.304;2022-09-09T07:30:54;20.88;;;13.07;;
73816;SDS011;62146;53.232;-1.304;2022-09-09T07:33:21;21.13;;;12.35;;
73816;SDS011;62146;53.232;-1.304;2022-09-09T07:35:48;20.70;;;13.15;;
73816;SDS011;62146;53.232;-1.304;2022-09-09T07:38:15;23.00;;;13.67;;
73816;SDS011;62146;53.232;-1.304;2022-09-09T07:40:42;23.45;;;13.10;;
73816;SDS011;62146;53.232;-1.304;2022-09-09T07:43:08;23.73;;;13.30;;
73816;SDS011;62146;53.232;-1.304;2022-09-09T07:45:40;21.95;;;13.48;;
73816;SDS011;62146;53.232;-1.304;2022-09-09T07:48:08;20.85;;;12.30;;
73816;SDS011;62146;53.232;-1.304;2022-09-09T07:50:34;19.40;;;12.63;;
73816;SDS011;62146;53.232;-1.304;2022-09-09T07:53:01;19.88;;;12.02;;
73816;SDS011;62146;53.232;-1.304;2022-09-09T07:55:28;21.13;;;12.23;;
73816;SDS011;62146;53.232;-1.304;2022-09-09T07:57:55;20.42;;;11.63;;
73816;SDS011;62146;53.232;-1.304;2022-09-09T08:00:22;20.75;;;11.88;;
73816;SDS011;62146;53.232;-1.304;2022-09-09T08:02:50;19.43;;;11.80;;
73816;SDS011;62146;53.232;-1.304;2022-09-09T08:05:16;20.13;;;12.13;;
73816;SDS011;62146;53.232;-1.304;2022-09-09T08:07:44;19.17;;;12.63;;
73816;SDS011;62146;53.232;-1.304;2022-09-09T08:10:10;20.70;;;12.27;;
73816;SDS011;62146;53.232;-1.304;2022-09-09T08:12:37;21.27;;;13.02;;
73816;SDS011;62146;53.232;-1.304;2022-09-09T08:15:09;21.10;;;12.77;;
73816;SDS011;62146;53.232;-1.304;2022-09-09T08:17:36;18.83;;;11.93;;
73816;SDS011;62146;53.232;-1.304;2022-09-09T08:20:04;21.13;;;11.65;;
73816;SDS011;62146;53.232;-1.304;2022-09-09T08:22:31;20.27;;;11.77;;
73816;SDS011;62146;53.232;-1.304;2022-09-09T08:24:57;18.10;;;11.68;;
73816;SDS011;62146;53.232;-1.304;2022-09-09T08:27:24;17.42;;;10.75;;
73816;SDS011;62146;53.232;-1.304;2022-09-09T08:29:51;17.87;;;11.40;;
73816;SDS011;62146;53.232;-1.304;2022-09-09T08:32:18;19.63;;;11.63;;
73816;SDS011;62146;53.232;-1.304;2022-09-09T08:34:45;15.00;;;10.10;;
73816;SDS011;62146;53.232;-1.304;2022-09-09T08:37:12;14.75;;;9.93;;
73816;SDS011;62146;53.232;-1.304;2022-09-09T08:39:38;17.23;;;10.30;;
73816;SDS011;62146;53.232;-1.304;2022-09-09T08:42:11;14.57;;;10.03;;
73816;SDS011;62146;53.232;-1.304;2022-09-09T08:47:53;12.00;;;8.75;;
73816;SDS011;62146;53.232;-1.304;2022-09-09T08:58:15;16.15;;;8.10;;
73816;SDS011;62146;53.232;-1.304;2022-09-09T09:00:51;13.13;;;7.68;;
73816;SDS011;62146;53.232;-1.304;2022-09-09T09:11:25;11.23;;;6.32;;
73816;SDS011;62146;53.232;-1.304;2022-09-09T09:13:57;10.23;;;5.85;;
73816;SDS011;62146;53.232;-1.304;2022-09-09T09:16:34;10.73;;;5.90;;
73816;SDS011;62146;53.232;-1.304;2022-09-09T09:19:02;9.90;;;5.93;;
73816;SDS011;62146;53.232;-1.304;2022-09-09T09:21:42;8.80;;;5.87;;
73816;SDS011;62146;53.232;-1.304;2022-09-09T09:24:16;10.25;;;6.13;;
73816;SDS011;62146;53.232;-1.304;2022-09-09T09:26:47;9.73;;;5.60;;
73816;SDS011;62146;53.232;-1.304;2022-09-09T09:29:15;9.60;;;4.60;;
73816;SDS011;62146;53.232;-1.304;2022-09-09T09:31:52;9.07;;;5.20;;
73816;SDS011;62146;53.232;-1.304;2022-09-09T09:34:23;10.67;;;4.90;;
73816;SDS011;62146;53.232;-1.304;2022-09-09T09:36:54;7.20;;;4.38;;
73816;SDS011;62146;53.232;-1.304;2022-09-09T09:39:23;8.55;;;4.28;;
73816;SDS011;62146;53.232;-1.304;2022-09-09T09:42:11;9.43;;;4.15;;
73816;SDS011;62146;53.232;-1.304;2022-09-09T09:44:40;8.77;;;4.30;;
73816;SDS011;62146;53.232;-1.304;2022-09-09T09:47:08;7.67;;;4.20;;
73816;SDS011;62146;53.232;-1.304;2022-09-09T09:49:54;7.72;;;3.45;;
73816;SDS011;62146;53.232;-1.304;2022-09-09T09:52:26;9.88;;;3.90;;
73816;SDS011;62146;53.232;-1.304;2022-09-09T09:54:55;7.80;;;3.33;;
73816;SDS011;62146;53.232;-1.304;2022-09-09T09:57:27;8.10;;;3.53;;
73816;SDS011;62146;53.232;-1.304;2022-09-09T10:02:46;9.00;;;3.58;;
73816;SDS011;62146;53.232;-1.304;2022-09-09T10:05:24;8.63;;;2.67;;
73816;SDS011;62146;53.232;-1.304;2022-09-09T10:08:10;9.93;;;2.67;;
73816;SDS011;62146;53.232;-1.304;2022-09-09T10:14:05;7.87;;;2.60;;
73816;SDS011;62146;53.232;-1.304;2022-09-09T10:19:50;6.80;;;2.50;;
73816;SDS011;62146;53.232;-1.304;2022-09-09T10:22:25;6.82;;;2.13;;
73816;SDS011;62146;53.232;-1.304;2022-09-09T10:27:47;7.97;;;2.17;;
73816;SDS011;62146;53.232;-1.304;2022-09-09T10:33:32;6.70;;;2.10;;
73816;SDS011;62146;53.232;-1.304;2022-09-09T10:38:45;7.18;;;3.00;;
73816;SDS011;62146;53.232;-1.304;2022-09-09T10:44:28;7.30;;;2.75;;
73816;SDS011;62146;53.232;-1.304;2022-09-09T10:55:27;8.97;;;2.50;;
73816;SDS011;62146;53.232;-1.304;2022-09-09T10:58:05;7.25;;;2.40;;
73816;SDS011;62146;53.232;-1.304;2022-09-09T11:00:41;12.43;;;2.75;;
73816;SDS011;62146;53.232;-1.304;2022-09-09T11:03:23;7.10;;;2.55;;
73816;SDS011;62146;53.232;-1.304;2022-09-09T11:05:57;6.60;;;2.78;;
73816;SDS011;62146;53.232;-1.304;2022-09-09T11:08:31;6.03;;;2.23;;
73816;SDS011;62146;53.232;-1.304;2022-09-09T11:11:21;7.00;;;2.25;;
73816;SDS011;62146;53.232;-1.304;2022-09-09T11:14:03;6.93;;;2.35;;
73816;SDS011;62146;53.232;-1.304;2022-09-09T11:22:07;7.33;;;2.40;;
73816;SDS011;62146;53.232;-1.304;2022-09-09T11:24:45;8.57;;;2.25;;
73816;SDS011;62146;53.232;-1.304;2022-09-09T11:27:19;13.30;;;4.38;;
73816;SDS011;62146;53.232;-1.304;2022-09-09T11:33:27;5.28;;;2.10;;
73816;SDS011;62146;53.232;-1.304;2022-09-09T11:41:51;9.85;;;2.50;;
73816;SDS011;62146;53.232;-1.304;2022-09-09T11:44:25;7.63;;;2.50;;
73816;SDS011;62146;53.232;-1.304;2022-09-09T11:46:56;7.30;;;2.17;;
73816;SDS011;62146;53.232;-1.304;2022-09-09T11:49:44;6.27;;;1.80;;
73816;SDS011;62146;53.232;-1.304;2022-09-09T11:52:23;6.53;;;1.52;;
73816;SDS011;62146;53.232;-1.304;2022-09-09T11:55:09;7.28;;;1.80;;
73816;SDS011;62146;53.232;-1.304;2022-09-09T11:57:38;7.60;;;1.67;;
73816;SDS011;62146;53.232;-1.304;2022-09-09T12:00:05;5.13;;;1.60;;
73816;SDS011;62146;53.232;-1.304;2022-09-09T12:02:32;7.60;;;2.00;;
73816;SDS011;62146;53.232;-1.304;2022-09-09T12:10:19;6.10;;;1.90;;
73816;SDS011;62146;53.232;-1.304;2022-09-09T12:12:49;8.70;;;2.00;;
73816;SDS011;62146;53.232;-1.304;2022-09-09T12:15:20;5.83;;;1.40;;
73816;SDS011;62146;53.232;-1.304;2022-09-09T12:17:51;5.28;;;1.42;;
73816;SDS011;62146;53.232;-1.304;2022-09-09T12:20:23;7.28;;;1.30;;
73816;SDS011;62146;53.232;-1.304;2022-09-09T12:25:54;5.18;;;1.38;;
73816;SDS011;62146;53.232;-1.304;2022-09-09T12:31:25;4.35;;;1.40;;
73816;SDS011;62146;53.232;-1.304;2022-09-09T12:36:44;4.00;;;1.38;;
73816;SDS011;62146;53.232;-1.304;2022-09-09T12:39:42;4.78;;;1.02;;
73816;SDS011;62146;53.232;-1.304;2022-09-09T12:42:16;4.70;;;1.00;;
73816;SDS011;62146;53.232;-1.304;2022-09-09T12:44:50;5.47;;;1.17;;
73816;SDS011;62146;53.232;-1.304;2022-09-09T12:47:23;9.07;;;1.13;;
73816;SDS011;62146;53.232;-1.304;2022-09-09T12:50:15;3.70;;;0.90;;
73816;SDS011;62146;53.232;-1.304;2022-09-09T12:52:45;6.15;;;1.05;;
73816;SDS011;62146;53.232;-1.304;2022-09-09T12:55:17;6.53;;;1.10;;
73816;SDS011;62146;53.232;-1.304;2022-09-09T12:57:47;7.07;;;0.93;;
73816;SDS011;62146;53.232;-1.304;2022-09-09T13:00:19;4.37;;;1.00;;
73816;SDS011;62146;53.232;-1.304;2022-09-09T13:02:50;5.28;;;1.00;;
73816;SDS011;62146;53.232;-1.304;2022-09-09T13:05:26;4.88;;;1.00;;
73816;SDS011;62146;53.232;-1.304;2022-09-09T13:08:04;6.38;;;0.93;;
73816;SDS011;62146;53.232;-1.304;2022-09-09T13:10:35;3.92;;;0.95;;
73816;SDS011;62146;53.232;-1.304;2022-09-09T13:13:27;4.33;;;0.90;;
73816;SDS011;62146;53.232;-1.304;2022-09-09T13:15:58;3.25;;;0.80;;
73816;SDS011;62146;53.232;-1.304;2022-09-09T13:18:30;2.38;;;0.63;;
73816;SDS011;62146;53.232;-1.304;2022-09-09T13:20:59;3.92;;;1.00;;
73816;SDS011;62146;53.232;-1.304;2022-09-09T13:23:35;5.18;;;0.80;;
73816;SDS011;62146;53.232;-1.304;2022-09-09T13:26:19;3.33;;;0.87;;
73816;SDS011;62146;53.232;-1.304;2022-09-09T13:28:54;7.28;;;0.90;;
73816;SDS011;62146;53.232;-1.304;2022-09-09T13:31:36;2.80;;;0.60;;
73816;SDS011;62146;53.232;-1.304;2022-09-09T13:37:04;5.15;;;1.23;;
73816;SDS011;62146;53.232;-1.304;2022-09-09T13:39:36;2.87;;;0.70;;
73816;SDS011;62146;53.232;-1.304;2022-09-09T13:42:03;3.00;;;0.70;;
73816;SDS011;62146;53.232;-1.304;2022-09-09T13:44:31;4.38;;;0.90;;
73816;SDS011;62146;53.232;-1.304;2022-09-09T13:49:36;4.13;;;0.73;;
73816;SDS011;62146;53.232;-1.304;2022-09-09T13:52:04;4.07;;;1.00;;
73816;SDS011;62146;53.232;-1.304;2022-09-09T13:54:32;5.00;;;0.90;;
73816;SDS011;62146;53.232;-1.304;2022-09-09T13:56:58;5.55;;;1.02;;
73816;SDS011;62146;53.232;-1.304;2022-09-09T13:59:25;6.85;;;1.15;;
73816;SDS011;62146;53.232;-1.304;2022-09-09T14:02:12;5.47;;;1.10;;
73816;SDS011;62146;53.232;-1.304;2022-09-09T14:04:39;6.73;;;1.20;;
73816;SDS011;62146;53.232;-1.304;2022-09-09T14:07:11;5.25;;;1.10;;
73816;SDS011;62146;53.232;-1.304;2022-09-09T14:09:39;4.53;;;1.10;;
73816;SDS011;62146;53.232;-1.304;2022-09-09T14:12:10;5.10;;;1.20;;
73816;SDS011;62146;53.232;-1.304;2022-09-09T14:14:38;5.18;;;1.15;;
73816;SDS011;62146;53.232;-1.304;2022-09-09T14:17:04;6.37;;;1.27;;
73816;SDS011;62146;53.232;-1.304;2022-09-09T14:19:33;6.75;;;1.10;;
73816;SDS011;62146;53.232;-1.304;2022-09-09T14:22:00;7.53;;;1.40;;
73816;SDS011;62146;53.232;-1.304;2022-09-09T14:24:27;6.65;;;1.50;;
73816;SDS011;62146;53.232;-1.304;2022-09-09T14:26:54;4.57;;;1.00;;
73816;SDS011;62146;53.232;-1.304;2022-09-09T14:29:21;3.60;;;1.00;;
73816;SDS011;62146;53.232;-1.304;2022-09-09T14:31:48;5.47;;;1.38;;
73816;SDS011;62146;53.232;-1.304;2022-09-09T14:34:14;3.22;;;1.30;;
73816;SDS011;62146;53.232;-1.304;2022-09-09T14:36:41;6.30;;;1.38;;
73816;SDS011;62146;53.232;-1.304;2022-09-09T14:39:07;3.83;;;1.27;;
73816;SDS011;62146;53.232;-1.304;2022-09-09T14:41:34;5.17;;;1.30;;
73816;SDS011;62146;53.232;-1.304;2022-09-09T14:44:01;3.42;;;1.15;;
73816;SDS011;62146;53.232;-1.304;2022-09-09T14:46:27;3.40;;;0.90;;
73816;SDS011;62146;53.232;-1.304;2022-09-09T14:48:54;3.78;;;0.93;;
73816;SDS011;62146;53.232;-1.304;2022-09-09T14:51:21;3.97;;;1.02;;
73816;SDS011;62146;53.232;-1.304;2022-09-09T14:53:52;3.67;;;0.90;;
73816;SDS011;62146;53.232;-1.304;2022-09-09T14:56:21;5.35;;;0.90;;
73816;SDS011;62146;53.232;-1.304;2022-09-09T14:58:50;2.50;;;0.90;;
73816;SDS011;62146;53.232;-1.304;2022-09-09T15:01:19;3.25;;;0.98;;
73816;SDS011;62146;53.232;-1.304;2022-09-09T15:03:53;3.35;;;0.93;;
73816;SDS011;62146;53.232;-1.304;2022-09-09T15:06:21;4.37;;;1.00;;
73816;SDS011;62146;53.232;-1.304;2022-09-09T15:08:50;4.30;;;1.00;;
73816;SDS011;62146;53.232;-1.304;2022-09-09T15:11:18;3.97;;;1.00;;
73816;SDS011;62146;53.232;-1.304;2022-09-09T15:13:46;4.05;;;1.10;;
73816;SDS011;62146;53.232;-1.304;2022-09-09T15:16:16;3.35;;;0.93;;
73816;SDS011;62146;53.232;-1.304;2022-09-09T15:18:44;4.90;;;1.10;;
73816;SDS011;62146;53.232;-1.304;2022-09-09T15:21:13;6.32;;;1.25;;
73816;SDS011;62146;53.232;-1.304;2022-09-09T15:23:41;4.15;;;0.80;;
73816;SDS011;62146;53.232;-1.304;2022-09-09T15:26:08;2.92;;;0.90;;
73816;SDS011;62146;53.232;-1.304;2022-09-09T15:28:35;2.63;;;0.70;;
73816;SDS011;62146;53.232;-1.304;2022-09-09T15:31:05;4.23;;;1.03;;
73816;SDS011;62146;53.232;-1.304;2022-09-09T15:33:52;4.07;;;0.82;;
73816;SDS011;62146;53.232;-1.304;2022-09-09T15:36:31;3.15;;;0.75;;
73816;SDS011;62146;53.232;-1.304;2022-09-09T15:39:00;4.63;;;0.90;;
73816;SDS011;62146;53.232;-1.304;2022-09-09T15:41:29;4.00;;;0.95;;
73816;SDS011;62146;53.232;-1.304;2022-09-09T15:43:57;3.07;;;0.77;;
73816;SDS011;62146;53.232;-1.304;2022-09-09T15:46:26;2.28;;;0.77;;
73816;SDS011;62146;53.232;-1.304;2022-09-09T15:49:08;3.92;;;0.80;;
73816;SDS011;62146;53.232;-1.304;2022-09-09T15:51:43;2.83;;;0.80;;
73816;SDS011;62146;53.232;-1.304;2022-09-09T15:54:12;2.92;;;0.85;;
73816;SDS011;62146;53.232;-1.304;2022-09-09T15:56:47;3.67;;;0.80;;
73816;SDS011;62146;53.232;-1.304;2022-09-09T15:59:17;3.67;;;0.68;;
73816;SDS011;62146;53.232;-1.304;2022-09-09T16:01:44;2.50;;;0.70;;
73816;SDS011;62146;53.232;-1.304;2022-09-09T16:04:11;3.38;;;0.90;;
73816;SDS011;62146;53.232;-1.304;2022-09-09T16:06:37;4.93;;;0.80;;
73816;SDS011;62146;53.232;-1.304;2022-09-09T16:09:05;3.33;;;0.80;;
73816;SDS011;62146;53.232;-1.304;2022-09-09T16:11:34;3.10;;;0.90;;
73816;SDS011;62146;53.232;-1.304;2022-09-09T16:14:02;2.92;;;0.73;;
73816;SDS011;62146;53.232;-1.304;2022-09-09T16:16:30;3.05;;;0.93;;
73816;SDS011;62146;53.232;-1.304;2022-09-09T16:18:58;3.53;;;0.95;;
73816;SDS011;62146;53.232;-1.304;2022-09-09T16:21:29;3.92;;;1.00;;
73816;SDS011;62146;53.232;-1.304;2022-09-09T16:23:58;3.80;;;0.90;;
73816;SDS011;62146;53.232;-1.304;2022-09-09T16:26:26;2.83;;;0.70;;
73816;SDS011;62146;53.232;-1.304;2022-09-09T16:28:53;3.55;;;1.00;;
73816;SDS011;62146;53.232;-1.304;2022-09-09T16:31:22;3.05;;;1.08;;
73816;SDS011;62146;53.232;-1.304;2022-09-09T16:33:50;4.20;;;1.17;;
73816;SDS011;62146;53.232;-1.304;2022-09-09T16:36:21;5.03;;;1.30;;
73816;SDS011;62146;53.232;-1.304;2022-09-09T16:39:01;4.72;;;1.20;;
73816;SDS011;62146;53.232;-1.304;2022-09-09T16:41:31;4.78;;;1.35;;
73816;SDS011;62146;53.232;-1.304;2022-09-09T16:43:59;5.80;;;1.13;;
73816;SDS011;62146;53.232;-1.304;2022-09-09T16:46:29;5.30;;;0.90;;
73816;SDS011;62146;53.232;-1.304;2022-09-09T16:48:56;4.73;;;1.00;;
73816;SDS011;62146;53.232;-1.304;2022-09-09T16:51:29;3.22;;;0.90;;